Time;durP1;ratioP1;P1;durP2;ratioP2;P2;SDS_P1;SDS_P2;PMS_P1;PMS_P2;Temp;Humidity;BMP_temperature;BMP_pressure;BME280_temperature;BME280_humidity;BME280_pressure;Samples;Min_cycle;Max_cycle;Signal;HPM_P1;HPM_P2
2023/06/07 00:02:04;;;;;;;12.65;4.53;;;;;;;19.31;82.22;101069.53;5053518;28;20055;-89
2023/06/07 00:04:30;;;;;;;9.32;4.38;;;;;;;19.43;82.40;101081.84;5053807;28;20021;-88
2023/06/07 00:07:00;;;;;;;11.98;4.70;;;;;;;19.24;82.67;101067.63;5053296;28;20431;-89
2023/06/07 00:09:35;;;;;;;14.00;4.78;;;;;;;19.16;82.65;101060.31;5053272;28;20139;-88
2023/06/07 00:12:00;;;;;;;7.97;4.43;;;;;;;19.15;83.08;101053.16;5052806;28;20086;-89
2023/06/07 00:14:26;;;;;;;11.75;5.00;;;;;;;19.25;83.22;101074.81;5052878;28;20025;-90
2023/06/07 00:16:53;;;;;;;15.15;5.05;;;;;;;19.33;83.43;101093.88;5053297;28;20040;-90
2023/06/07 00:19:25;;;;;;;13.25;4.20;;;;;;;19.18;83.28;101063.72;5052278;28;20021;-92
2023/06/07 00:21:51;;;;;;;11.85;4.22;;;;;;;19.07;83.18;101047.72;5053803;28;20079;-92
2023/06/07 00:24:17;;;;;;;12.60;4.18;;;;;;;19.15;83.49;101064.06;5053515;28;20025;-88
2023/06/07 00:26:43;;;;;;;10.60;3.58;;;;;;;19.15;83.14;101058.59;5055602;28;20452;-89
2023/06/07 00:29:10;;;;;;;13.13;4.95;;;;;;;19.01;83.12;101034.75;5064497;28;20053;-85
2023/06/07 00:31:36;;;;;;;16.48;4.25;;;;;;;18.92;82.80;101031.16;5072669;28;20033;-89
2023/06/07 00:34:01;;;;;;;10.35;4.30;;;;;;;18.88;83.03;101023.47;5062115;28;20032;-90
2023/06/07 00:36:28;;;;;;;11.85;4.40;;;;;;;19.05;83.03;101048.91;5060468;28;20029;-89
2023/06/07 00:38:54;;;;;;;9.50;3.88;;;;;;;18.98;82.61;101032.38;5072906;28;20031;-96
2023/06/07 00:41:20;;;;;;;9.13;4.15;;;;;;;18.88;82.89;101028.94;5090569;28;20040;-96
2023/06/07 00:43:47;;;;;;;16.50;4.57;;;;;;;19.13;83.03;101073.44;5071517;28;20021;-92
2023/06/07 00:46:14;;;;;;;34.08;7.28;;;;;;;18.97;82.84;101044.28;5056025;28;20028;-89
2023/06/07 00:48:40;;;;;;;16.33;5.13;;;;;;;18.94;82.80;101048.19;5058891;28;20111;-90
2023/06/07 00:51:06;;;;;;;13.05;4.70;;;;;;;19.01;82.80;101051.09;5055433;28;20373;-89
2023/06/07 00:53:32;;;;;;;13.27;4.50;;;;;;;19.04;82.44;101045.31;5068572;28;20177;-90
2023/06/07 00:55:58;;;;;;;18.77;4.13;;;;;;;19.05;82.22;101041.53;5066697;28;20028;-90
2023/06/07 00:58:25;;;;;;;10.15;4.00;;;;;;;19.02;82.32;101039.16;5055914;28;20067;-90
2023/06/07 01:00:51;;;;;;;11.07;4.00;;;;;;;18.95;82.04;101024.53;5053307;28;20055;-90
2023/06/07 01:03:17;;;;;;;9.15;4.10;;;;;;;19.07;81.96;101047.72;5053439;28;20025;-90
2023/06/07 01:05:44;;;;;;;13.80;4.43;;;;;;;19.07;81.64;101033.22;5052178;28;20033;-90
2023/06/07 01:08:10;;;;;;;9.15;4.30;;;;;;;18.91;81.56;101006.78;5053288;28;20021;-89
2023/06/07 01:10:36;;;;;;;12.30;4.47;;;;;;;18.97;81.60;101011.56;5069260;28;20037;-89
2023/06/07 01:13:03;;;;;;;11.93;4.72;;;;;;;18.94;81.66;101012.75;5054394;28;20469;-89
2023/06/07 01:15:29;;;;;;;15.48;4.88;;;;;;;19.00;81.32;101022.13;5054292;28;20040;-89
2023/06/07 01:17:57;;;;;;;27.05;6.43;;;;;;;18.95;81.53;101025.38;5086131;28;20025;-90
2023/06/07 01:20:25;;;;;;;7.10;4.70;;;;;;;19.09;81.45;101031.16;5052088;28;20035;-90
2023/06/07 01:22:56;;;;;;;12.57;4.85;;;;;;;18.88;80.92;100996.22;5053689;28;20107;-89
2023/06/07 01:25:22;;;;;;;7.53;3.92;;;;;;;18.82;80.88;100995.03;5053673;28;20029;-90
2023/06/07 01:27:52;;;;;;;8.35;3.80;;;;;;;18.85;80.44;100989.25;5054581;28;20093;-89
2023/06/07 01:30:21;;;;;;;13.55;4.88;;;;;;;18.88;80.31;101007.13;5057374;28;20492;-89
2023/06/07 01:32:48;;;;;;;20.25;5.25;;;;;;;18.82;80.52;101003.22;5057103;28;20452;-90
2023/06/07 01:35:14;;;;;;;11.40;5.35;;;;;;;18.93;80.63;101016.50;5073527;28;20029;-89
2023/06/07 01:37:42;;;;;;;14.50;6.55;;;;;;;18.76;80.37;100983.94;5074499;28;20013;-96
2023/06/07 01:40:09;;;;;;;9.85;4.97;;;;;;;19.03;80.25;101021.78;5058371;28;20060;-89
2023/06/07 01:42:36;;;;;;;13.98;4.80;;;;;;;18.86;80.19;100988.22;5053489;28;20025;-91
2023/06/07 01:45:04;;;;;;;9.98;4.68;;;;;;;18.85;80.71;100988.38;5057745;28;20032;-91
2023/06/07 01:47:30;;;;;;;8.00;4.43;;;;;;;18.82;80.89;100980.56;5057084;28;20021;-89
2023/06/07 01:49:57;;;;;;;10.75;3.97;;;;;;;18.78;81.05;100977.31;5056544;28;20029;-90
2023/06/07 01:52:23;;;;;;;9.50;4.70;;;;;;;18.98;81.59;101014.13;5059156;28;20021;-89
2023/06/07 01:54:49;;;;;;;14.43;4.28;;;;;;;18.81;81.69;100995.19;5090016;28;20179;-90
2023/06/07 01:57:41;;;;;;;7.68;3.78;;;;;;;18.93;81.98;101021.94;5073263;28;20194;-91
2023/06/07 02:00:35;;;;;;;11.87;4.33;;;;;;;18.79;81.92;101010.88;5057601;28;20033;-90
2023/06/07 02:03:33;;;;;;;21.77;4.88;;;;;;;18.98;82.32;101041.41;5033018;28;20057;-94
2023/06/07 02:06:10;;;;;;;9.45;4.35;;;;;;;18.85;81.82;101007.47;4978853;28;20090;-92
2023/06/07 02:08:48;;;;;;;10.27;4.88;;;;;;;18.76;82.25;101009.34;4974131;29;20035;-90
2023/06/07 02:11:16;;;;;;;16.42;3.72;;;;;;;18.86;82.23;101025.53;4970663;29;20054;-90
2023/06/07 02:13:43;;;;;;;14.63;4.10;;;;;;;18.73;82.74;101009.69;4971298;29;20043;-89
2023/06/07 02:16:09;;;;;;;11.57;4.35;;;;;;;18.77;81.98;101004.75;4947054;29;20499;-89
2023/06/07 02:18:40;;;;;;;11.98;4.70;;;;;;;18.72;81.81;100993.47;4940066;29;20065;-90
2023/06/07 02:21:06;;;;;;;9.55;3.70;;;;;;;18.85;81.75;101013.78;4940017;29;20074;-90
2023/06/07 02:23:32;;;;;;;13.65;3.55;;;;;;;18.81;81.38;101009.69;4940028;29;20035;-90
2023/06/07 02:25:57;;;;;;;15.75;4.72;;;;;;;18.81;81.36;101014.25;4961940;29;20035;-90
2023/06/07 02:28:23;;;;;;;20.45;4.78;;;;;;;19.01;81.31;101043.78;4962884;29;20032;-89
2023/06/07 02:30:49;;;;;;;11.05;4.18;;;;;;;18.77;80.54;101010.19;4969313;28;20122;-89
2023/06/07 02:33:15;;;;;;;12.18;4.18;;;;;;;18.81;80.38;101017.00;4977794;28;20101;-90
2023/06/07 02:35:43;;;;;;;20.20;4.75;;;;;;;18.99;80.22;101036.78;4971203;28;20094;-91
2023/06/07 02:38:09;;;;;;;14.98;4.53;;;;;;;18.84;80.25;101012.06;4960255;29;20122;-90
2023/06/07 02:40:35;;;;;;;27.33;6.95;;;;;;;18.91;80.06;101029.47;5001858;28;20128;-90
2023/06/07 02:43:00;;;;;;;10.55;4.82;;;;;;;18.73;80.06;101004.22;5041375;28;20037;-91
2023/06/07 02:45:26;;;;;;;27.17;5.25;;;;;;;18.90;80.11;101038.66;5055633;28;20029;-89
2023/06/07 02:47:53;;;;;;;14.88;4.55;;;;;;;18.86;80.35;101031.00;5054232;28;20025;-85
2023/06/07 02:50:19;;;;;;;42.80;8.25;;;;;;;18.85;80.28;101021.94;5055719;28;20036;-87
2023/06/07 02:52:45;;;;;;;11.40;4.68;;;;;;;18.81;80.40;101019.72;5056397;28;20142;-86
2023/06/07 02:55:11;;;;;;;14.25;4.05;;;;;;;18.68;80.76;101011.22;5054591;28;20036;-88
2023/06/07 02:57:36;;;;;;;14.07;4.10;;;;;;;18.67;80.75;101014.94;5068863;28;20025;-86
2023/06/07 03:00:08;;;;;;;32.28;5.32;;;;;;;18.69;81.16;101010.16;5060916;28;20547;-87
2023/06/07 03:02:34;;;;;;;27.98;5.57;;;;;;;18.62;81.09;101000.97;5055617;28;20064;-88
2023/06/07 03:05:00;;;;;;;13.88;4.53;;;;;;;18.61;81.44;101004.72;5055349;28;20033;-88
2023/06/07 03:07:27;;;;;;;18.45;4.35;;;;;;;18.58;81.25;100994.16;5055109;28;20036;-88
2023/06/07 03:09:52;;;;;;;13.00;4.70;;;;;;;18.71;81.02;101008.16;5054750;28;20021;-88
2023/06/07 03:12:17;;;;;;;10.85;5.28;;;;;;;18.64;81.32;100996.19;5055263;28;20480;-87
2023/06/07 03:14:43;;;;;;;9.65;4.35;;;;;;;18.68;81.32;100995.72;5055601;28;20041;-88
2023/06/07 03:17:08;;;;;;;20.95;5.63;;;;;;;18.83;81.40;101020.41;5056078;28;20037;-87
2023/06/07 03:19:35;;;;;;;27.35;6.28;;;;;;;18.80;81.61;101010.72;5060192;28;20033;-84
2023/06/07 03:22:02;;;;;;;13.32;5.43;;;;;;;18.79;81.71;101002.69;5072969;28;20021;-88
2023/06/07 03:24:30;;;;;;;10.05;6.28;;;;;;;18.98;81.74;101037.81;5057446;28;20013;-86
2023/06/07 03:26:57;;;;;;;27.70;5.82;;;;;;;18.99;81.61;101042.22;5061508;28;20020;-94
2023/06/07 03:29:23;;;;;;;16.73;7.50;;;;;;;18.89;81.53;101017.88;5076988;28;20044;-94
2023/06/07 03:31:48;;;;;;;23.95;9.57;;;;;;;18.99;81.14;101037.63;5073497;28;20044;-88
2023/06/07 03:34:14;;;;;;;20.73;6.30;;;;;;;19.10;81.36;101060.13;5055359;28;20025;-88
2023/06/07 03:36:40;;;;;;;32.50;6.50;;;;;;;18.97;81.18;101038.81;5055695;28;20485;-81
2023/06/07 03:39:05;;;;;;;19.50;5.72;;;;;;;19.11;80.96;101065.41;5052823;28;20059;-82
2023/06/07 03:41:31;;;;;;;24.17;4.93;;;;;;;19.13;80.93;101063.38;5053069;28;20056;-83
2023/06/07 03:43:56;;;;;;;16.40;7.65;;;;;;;18.95;80.25;101040.88;5054393;28;20029;-86
2023/06/07 03:46:22;;;;;;;24.00;5.70;;;;;;;18.90;79.97;101044.09;5053775;28;20032;-83
2023/06/07 03:48:47;;;;;;;9.38;4.82;;;;;;;18.86;80.61;101050.06;5051886;28;20051;-82
2023/06/07 03:51:13;;;;;;;13.23;4.45;;;;;;;18.71;80.67;101029.94;5054053;28;20033;-89
2023/06/07 03:53:39;;;;;;;10.13;4.70;;;;;;;18.95;80.66;101065.41;5053487;28;20032;-84
2023/06/07 03:56:05;;;;;;;19.92;6.60;;;;;;;18.89;80.64;101053.31;5054686;28;20036;-84
2023/06/07 03:58:31;;;;;;;19.35;4.97;;;;;;;19.00;80.22;101066.59;5053967;28;20489;-95
2023/06/07 04:00:56;;;;;;;24.50;6.13;;;;;;;19.01;80.17;101064.75;5053366;28;20053;-90
2023/06/07 04:03:24;;;;;;;9.57;4.97;;;;;;;19.01;80.11;101064.75;5051361;28;20021;-84
2023/06/07 04:05:55;;;;;;;17.60;4.95;;;;;;;19.06;79.42;101070.53;5052646;28;20445;-86
2023/06/07 04:08:22;;;;;;;24.87;7.67;;;;;;;19.10;79.55;101062.88;5051453;28;20032;-87
2023/06/07 04:10:48;;;;;;;25.85;7.75;;;;;;;19.16;79.40;101063.03;5052765;28;20028;-89
2023/06/07 04:13:14;;;;;;;20.13;5.57;;;;;;;18.98;78.93;101035.09;5052892;28;20500;-84
2023/06/07 04:15:42;;;;;;;15.27;6.05;;;;;;;18.99;77.91;101023.13;5054196;28;20029;-87
2023/06/07 04:18:08;;;;;;;23.10;7.18;;;;;;;19.31;76.78;101068.66;5054204;28;20025;-83
2023/06/07 04:20:33;;;;;;;82.57;11.02;;;;;;;19.24;76.44;101041.22;5054086;28;20432;-83
2023/06/07 04:23:00;;;;;;;51.58;10.95;;;;;;;19.42;76.02;101058.28;5054028;28;20442;-83
2023/06/07 04:25:33;;;;;;;23.58;5.40;;;;;;;19.55;74.00;101061.34;5075872;28;20025;-89
2023/06/07 04:28:00;;;;;;;34.40;6.35;;;;;;;19.62;72.72;101047.88;5070323;28;20428;-84
2023/06/07 04:30:34;;;;;;;32.35;6.90;;;;;;;19.63;71.94;101019.53;5052004;28;20091;-85
2023/06/07 04:33:08;;;;;;;35.17;8.48;;;;;;;19.93;70.97;101045.25;5051528;28;20036;-89
2023/06/07 04:35:35;;;;;;;32.53;6.43;;;;;;;19.88;70.14;101026.66;5052135;28;20447;-89
2023/06/07 04:38:01;;;;;;;40.67;7.95;;;;;;;20.14;69.49;101045.53;5052672;28;20131;-88
2023/06/07 04:40:28;;;;;;;22.52;3.88;;;;;;;20.23;68.03;101055.38;5051198;28;20033;-83
2023/06/07 04:43:05;;;;;;;27.25;4.40;;;;;;;20.21;65.85;101057.47;5050464;28;20056;-84
2023/06/07 04:45:36;;;;;;;22.17;4.72;;;;;;;20.09;64.45;101054.22;5051530;28;20047;-89
2023/06/07 04:48:04;;;;;;;44.45;6.43;;;;;;;20.09;64.12;101047.91;5052966;28;20393;-91
2023/06/07 04:50:30;;;;;;;17.70;4.45;;;;;;;20.19;62.62;101064.97;5051490;28;20031;-82
2023/06/07 04:53:00;;;;;;;21.42;4.28;;;;;;;20.28;61.35;101069.38;5051590;28;20108;-88
2023/06/07 04:55:28;;;;;;;30.20;3.67;;;;;;;20.48;61.00;101076.16;5051498;28;20025;-85
2023/06/07 04:57:54;;;;;;;18.92;3.72;;;;;;;20.54;61.34;101072.72;5045830;28;20037;-83
2023/06/07 05:00:24;;;;;;;28.65;5.32;;;;;;;20.61;61.37;101068.22;5049331;28;20025;-90
2023/06/07 05:02:52;;;;;;;13.02;3.42;;;;;;;20.54;58.80;101066.38;5050834;28;20041;-90
2023/06/07 05:05:21;;;;;;;49.30;6.25;;;;;;;20.63;59.17;101068.91;5051208;28;20381;-90
2023/06/07 05:07:46;;;;;;;20.63;4.22;;;;;;;20.70;58.92;101051.78;5052092;28;20035;-91
2023/06/07 05:10:12;;;;;;;28.05;6.68;;;;;;;20.72;58.16;101052.44;5053036;28;20025;-89
2023/06/07 05:12:38;;;;;;;17.42;3.45;;;;;;;20.57;57.96;101036.81;5051607;28;20040;-90
2023/06/07 05:15:05;;;;;;;33.17;4.75;;;;;;;20.77;58.39;101060.94;5054110;28;20079;-84
2023/06/07 05:17:30;;;;;;;19.55;3.72;;;;;;;20.67;58.63;101049.41;5053900;28;20504;-82
2023/06/07 05:19:55;;;;;;;19.80;4.28;;;;;;;20.87;58.99;101056.09;5059809;28;20029;-87
2023/06/07 05:22:21;;;;;;;19.75;4.07;;;;;;;20.73;58.13;101035.88;5074066;28;20033;-88
2023/06/07 05:24:48;;;;;;;18.00;3.45;;;;;;;20.80;57.52;101049.66;5069656;28;20507;-89
2023/06/07 05:27:14;;;;;;;73.30;8.88;;;;;;;20.93;57.19;101058.13;5053126;28;20051;-85
2023/06/07 05:29:41;;;;;;;43.28;6.18;;;;;;;21.01;55.88;101061.63;5053612;28;20057;-89
2023/06/07 05:32:07;;;;;;;14.32;2.60;;;;;;;20.86;55.06;101043.44;5054945;28;20100;-91
2023/06/07 05:34:32;;;;;;;16.08;4.20;;;;;;;20.83;55.60;101041.94;5055788;28;20029;-86
2023/06/07 05:36:58;;;;;;;49.25;5.70;;;;;;;20.98;55.24;101040.13;5055280;28;20456;-88
2023/06/07 05:39:24;;;;;;;26.38;3.83;;;;;;;21.25;55.45;101063.41;5053708;28;20128;-86
2023/06/07 05:41:50;;;;;;;22.67;4.15;;;;;;;21.24;55.39;101042.53;5052113;28;20029;-87
2023/06/07 05:44:16;;;;;;;10.45;2.92;;;;;;;21.29;54.95;101059.22;5053352;28;20040;-85
2023/06/07 05:46:41;;;;;;;26.95;4.97;;;;;;;21.37;55.36;101050.97;5053524;28;20021;-90
2023/06/07 05:49:07;;;;;;;27.02;4.68;;;;;;;21.51;54.27;101060.25;5065497;28;20041;-91
2023/06/07 05:51:32;;;;;;;10.20;3.70;;;;;;;21.61;53.21;101066.31;5051428;28;20033;-91
2023/06/07 05:53:58;;;;;;;31.27;5.68;;;;;;;21.43;53.39;101047.50;5050928;28;20443;-86
2023/06/07 05:56:24;;;;;;;10.30;3.35;;;;;;;21.51;53.34;101052.88;5042144;28;20039;-88
2023/06/07 05:58:50;;;;;;;14.95;3.53;;;;;;;21.56;53.52;101055.91;5031854;28;20029;-90
2023/06/07 06:01:17;;;;;;;33.85;5.72;;;;;;;21.42;49.52;101043.06;5045004;28;20056;-83
2023/06/07 06:03:42;;;;;;;24.08;3.60;;;;;;;21.55;52.34;101069.78;5032363;28;20041;-82
2023/06/07 06:06:16;;;;;;;9.23;3.53;;;;;;;21.53;53.92;101064.50;5050578;28;20400;-84
2023/06/07 06:08:42;;;;;;;20.95;3.75;;;;;;;21.69;54.17;101072.56;5051365;28;20527;-91
2023/06/07 06:11:13;;;;;;;19.50;3.20;;;;;;;21.70;53.50;101068.78;5054886;28;20112;-87
2023/06/07 06:13:39;;;;;;;8.35;3.25;;;;;;;21.57;54.94;101054.03;5056731;28;20386;-84
2023/06/07 06:16:05;;;;;;;23.73;3.22;;;;;;;21.70;54.04;101077.00;5059365;28;20029;-87
2023/06/07 06:18:31;;;;;;;37.83;4.53;;;;;;;21.59;54.33;101061.00;5073399;28;20093;-85
2023/06/07 06:20:57;;;;;;;18.13;4.65;;;;;;;21.74;54.81;101068.41;5068910;28;20118;-86
2023/06/07 06:23:23;;;;;;;9.90;3.08;;;;;;;21.92;54.92;101071.69;5052020;28;20167;-85
2023/06/07 06:25:48;;;;;;;55.50;6.15;;;;;;;21.98;54.68;101054.50;5050655;28;20029;-86
2023/06/07 06:28:14;;;;;;;20.88;4.28;;;;;;;22.09;54.90;101052.13;5050510;28;20477;-85
2023/06/07 06:30:40;;;;;;;8.95;3.28;;;;;;;21.97;54.54;101047.31;5052772;28;20615;-86
2023/06/07 06:33:05;;;;;;;21.38;4.80;;;;;;;22.15;53.92;101065.06;5062361;28;20029;-86
2023/06/07 06:35:35;;;;;;;19.45;3.72;;;;;;;22.24;54.18;101065.81;5069836;28;20417;-86
2023/06/07 06:38:00;;;;;;;14.98;4.28;;;;;;;22.27;54.86;101061.84;5076266;28;20037;-86
2023/06/07 06:40:26;;;;;;;16.95;3.50;;;;;;;21.97;55.38;101039.94;5071953;28;20017;-84
2023/06/07 06:42:52;;;;;;;18.60;5.20;;;;;;;22.23;55.80;101080.59;5076739;28;20116;-83
2023/06/07 06:45:18;;;;;;;12.27;3.75;;;;;;;22.22;56.99;101062.44;5069050;28;20028;-89
2023/06/07 06:47:44;;;;;;;16.58;3.47;;;;;;;22.15;55.53;101066.97;5064649;28;20045;-83
2023/06/07 06:50:11;;;;;;;18.63;4.25;;;;;;;22.28;56.85;101083.59;5056467;28;20029;-86
2023/06/07 06:52:41;;;;;;;11.60;2.85;;;;;;;22.10;55.55;101048.38;5054590;28;20040;-88
2023/06/07 06:55:07;;;;;;;20.25;4.07;;;;;;;21.92;52.77;101033.34;5053505;28;20017;-88
2023/06/07 06:57:33;;;;;;;14.15;4.45;;;;;;;22.13;55.85;101071.78;5055236;28;20101;-89
2023/06/07 07:00:10;;;;;;;16.02;3.35;;;;;;;22.22;58.23;101073.38;5054876;28;20112;-91
2023/06/07 07:02:35;;;;;;;11.77;3.28;;;;;;;22.06;55.09;101059.88;5055879;28;20061;-88
2023/06/07 07:05:03;;;;;;;12.80;3.80;;;;;;;22.11;51.97;101054.66;5053783;28;20484;-85
2023/06/07 07:07:29;;;;;;;10.48;3.55;;;;;;;22.20;55.03;101061.75;5056592;28;20047;-86
2023/06/07 07:09:55;;;;;;;8.65;3.35;;;;;;;22.14;54.48;101043.31;5057788;28;20028;-90
2023/06/07 07:12:23;;;;;;;8.50;3.75;;;;;;;22.35;53.62;101068.09;5062198;28;20035;-90
2023/06/07 07:14:49;;;;;;;11.27;3.67;;;;;;;22.32;55.25;101075.84;5075865;28;20024;-91
2023/06/07 07:17:15;;;;;;;15.43;3.83;;;;;;;22.29;56.17;101074.34;5070286;28;20021;-89
2023/06/07 07:19:41;;;;;;;7.45;3.70;;;;;;;22.36;57.32;101068.94;5054318;28;20033;-90
2023/06/07 07:22:06;;;;;;;22.58;4.55;;;;;;;22.40;58.06;101065.63;5053286;28;20083;-95
2023/06/07 07:24:32;;;;;;;15.32;5.53;;;;;;;22.61;58.99;101082.13;5085133;28;20415;-95
2023/06/07 07:26:57;;;;;;;18.27;4.13;;;;;;;22.72;59.01;101069.84;5049681;28;20080;-87
2023/06/07 07:29:23;;;;;;;21.52;5.22;;;;;;;22.73;59.28;101058.69;5019156;28;20033;-87
2023/06/07 07:31:48;;;;;;;9.85;3.75;;;;;;;22.80;59.66;101071.63;5034446;28;20131;-88
2023/06/07 07:34:14;;;;;;;29.58;5.28;;;;;;;22.81;60.25;101084.31;5050007;28;20071;-86
2023/06/07 07:36:40;;;;;;;10.45;4.82;;;;;;;22.68;60.05;101069.41;5049576;28;20420;-82
2023/06/07 07:39:05;;;;;;;14.43;4.07;;;;;;;22.92;60.33;101089.28;5048389;28;20025;-81
2023/06/07 07:41:34;;;;;;;8.95;3.38;;;;;;;22.69;60.43;101093.00;5049018;28;20504;-81
2023/06/07 07:44:01;;;;;;;17.23;5.05;;;;;;;22.47;61.40;101055.59;5051333;28;20515;-83
2023/06/07 07:46:27;;;;;;;32.85;5.90;;;;;;;22.64;61.83;101079.00;5052411;28;20041;-81
2023/06/07 07:48:52;;;;;;;17.80;4.45;;;;;;;22.57;62.70;101086.28;5053244;28;20041;-85
2023/06/07 07:51:18;;;;;;;7.65;3.75;;;;;;;22.60;62.52;101083.16;5039445;28;20500;-83
2023/06/07 07:53:43;;;;;;;10.02;3.40;;;;;;;22.63;62.67;101107.47;5055408;28;20033;-79
2023/06/07 07:56:09;;;;;;;15.40;4.07;;;;;;;22.63;63.23;101092.91;5050691;28;20036;-81
2023/06/07 07:58:35;;;;;;;34.55;7.65;;;;;;;22.80;63.17;101080.72;5050511;28;20048;-87
2023/06/07 08:01:01;;;;;;;23.00;4.07;;;;;;;22.85;61.71;101069.16;5050026;28;20055;-91
2023/06/07 08:03:28;;;;;;;12.23;4.22;;;;;;;22.83;59.04;101065.75;5054312;28;20029;-85
2023/06/07 08:05:53;;;;;;;14.60;3.03;;;;;;;22.94;58.28;101084.44;5055103;28;20040;-83
2023/06/07 08:08:19;;;;;;;16.92;3.88;;;;;;;22.91;57.98;101079.34;5053523;28;20029;-83
2023/06/07 08:10:46;;;;;;;23.60;4.65;;;;;;;23.01;57.72;101085.38;5066426;28;20481;-84
2023/06/07 08:13:12;;;;;;;7.03;3.50;;;;;;;22.76;59.44;101050.06;5065433;28;20057;-85
2023/06/07 08:15:38;;;;;;;25.00;5.53;;;;;;;22.85;58.67;101069.16;5053423;28;20029;-78
2023/06/07 08:18:04;;;;;;;12.93;4.28;;;;;;;22.96;57.90;101083.22;5051159;28;20087;-85
2023/06/07 08:20:29;;;;;;;9.65;3.30;;;;;;;22.98;57.44;101086.63;5049534;28;20563;-83
2023/06/07 08:22:55;;;;;;;58.25;20.20;;;;;;;22.84;58.11;101061.97;5050284;28;20033;-85
2023/06/07 08:25:21;;;;;;;16.80;3.50;;;;;;;22.89;56.48;101081.44;5049891;28;20116;-84
2023/06/07 08:27:46;;;;;;;15.65;3.75;;;;;;;22.84;56.63;101070.22;5049720;28;20488;-81
2023/06/07 08:30:12;;;;;;;19.00;3.33;;;;;;;22.95;56.73;101088.91;5049671;28;20036;-82
2023/06/07 08:32:39;;;;;;;17.60;4.20;;;;;;;22.95;56.15;101089.75;5065292;28;20028;-85
2023/06/07 08:35:06;;;;;;;8.05;3.53;;;;;;;23.13;57.00;101090.16;5049692;28;20040;-78
2023/06/07 08:37:31;;;;;;;6.43;3.00;;;;;;;23.13;54.27;101086.56;5049187;28;20032;-90
2023/06/07 08:39:56;;;;;;;20.77;3.80;;;;;;;23.15;55.97;101077.06;5050757;28;20025;-81
2023/06/07 08:42:22;;;;;;;15.68;3.65;;;;;;;23.21;56.43;101091.91;5051259;28;20029;-93
2023/06/07 08:44:48;;;;;;;14.00;3.60;;;;;;;22.99;58.73;101088.31;5050487;28;20035;-86
2023/06/07 08:47:16;;;;;;;16.88;4.28;;;;;;;23.02;57.34;101089.81;5051231;28;20021;-90
2023/06/07 08:49:44;;;;;;;8.15;3.03;;;;;;;23.03;56.83;101072.28;5051541;28;20028;-87
2023/06/07 08:52:10;;;;;;;7.70;3.13;;;;;;;23.30;56.16;101085.28;5049162;28;20017;-88
2023/06/07 08:54:40;;;;;;;10.45;3.05;;;;;;;23.27;52.89;101091.16;5053575;28;20037;-91
2023/06/07 08:57:06;;;;;;;24.58;4.82;;;;;;;23.10;55.03;101067.75;5053479;28;20075;-87
2023/06/07 08:59:33;;;;;;;14.13;3.80;;;;;;;23.22;54.18;101074.41;5057073;28;20056;-87
2023/06/07 09:01:58;;;;;;;9.57;3.58;;;;;;;23.33;54.90;101095.88;5059694;28;20049;-85
2023/06/07 09:04:24;;;;;;;11.13;4.60;;;;;;;23.29;53.05;101098.16;5055332;28;20484;-82
2023/06/07 09:06:51;;;;;;;11.43;3.22;;;;;;;23.13;48.24;101083.81;5068098;28;20056;-84
2023/06/07 09:09:16;;;;;;;8.05;2.97;;;;;;;23.37;51.84;101097.16;5070391;28;20047;-93
2023/06/07 09:11:42;;;;;;;10.55;3.63;;;;;;;23.37;52.72;101097.16;5053232;28;20123;-95
2023/06/07 09:14:09;;;;;;;15.88;6.85;;;;;;;23.29;51.23;101086.31;5033964;28;20029;-94
2023/06/07 09:16:58;;;;;;;8.50;3.83;;;;;;;23.18;53.37;101068.44;5009597;28;20147;-89
2023/06/07 09:19:43;;;;;;;13.07;2.92;;;;;;;23.50;52.01;101097.31;5006775;28;20469;-84
2023/06/07 09:22:14;;;;;;;5.30;2.55;;;;;;;23.43;51.20;101088.16;4989475;28;20498;-82
2023/06/07 09:24:40;;;;;;;5.97;3.15;;;;;;;23.42;51.49;101093.84;5006544;28;20042;-83
2023/06/07 09:27:08;;;;;;;6.93;2.55;;;;;;;23.25;52.13;101087.75;5005833;28;20069;-82
2023/06/07 09:29:42;;;;;;;9.75;2.95;;;;;;;23.35;52.11;101088.25;5006510;28;20037;-86
2023/06/07 09:32:18;;;;;;;18.08;3.53;;;;;;;23.39;51.00;101089.63;5006886;28;20390;-84
2023/06/07 09:34:44;;;;;;;14.98;3.38;;;;;;;23.43;50.54;101101.88;5006910;28;20041;-82
2023/06/07 09:37:09;;;;;;;18.98;4.43;;;;;;;23.49;51.01;101089.25;5013570;28;20106;-87
2023/06/07 09:39:37;;;;;;;90.50;12.05;;;;;;;23.49;49.74;101090.09;5026022;28;20099;-83
2023/06/07 09:42:13;;;;;;;20.83;5.65;;;;;;;23.64;49.65;101101.00;5026085;28;20127;-84
2023/06/07 09:44:39;;;;;;;19.83;3.70;;;;;;;23.63;49.54;101097.44;5027242;28;20461;-85
2023/06/07 09:47:06;;;;;;;21.50;3.70;;;;;;;23.60;50.44;101092.34;5032533;28;20041;-83
2023/06/07 09:49:34;;;;;;;25.15;3.42;;;;;;;23.60;50.76;101092.34;5048718;28;20047;-79
2023/06/07 09:52:04;;;;;;;11.45;2.83;;;;;;;23.55;50.66;101083.81;5049260;28;20029;-81
2023/06/07 09:54:41;;;;;;;20.30;3.65;;;;;;;23.46;50.07;101106.97;5048846;28;20032;-81
2023/06/07 09:57:08;;;;;;;14.65;2.70;;;;;;;23.47;49.52;101102.34;5051305;28;20108;-78
2023/06/07 09:59:36;;;;;;;26.58;4.75;;;;;;;23.62;49.50;101089.38;5050723;28;20172;-81
2023/06/07 10:02:02;;;;;;;26.77;4.72;;;;;;;23.91;48.85;101104.84;5049265;28;20127;-78
2023/06/07 10:04:27;;;;;;;13.55;4.85;;;;;;;23.93;49.37;101108.22;5055209;28;20084;-78
2023/06/07 10:06:57;;;;;;;17.20;3.90;;;;;;;23.97;49.64;101095.78;5056409;28;20079;-81
2023/06/07 10:09:26;;;;;;;10.20;2.88;;;;;;;23.96;49.11;101092.19;5052609;28;20040;-82
2023/06/07 10:11:55;;;;;;;17.40;3.35;;;;;;;23.91;49.44;101080.09;5051564;28;20806;-86
2023/06/07 10:14:27;;;;;;;20.23;3.47;;;;;;;23.96;49.35;101081.19;5060928;28;20029;-90
2023/06/07 10:17:02;;;;;;;16.02;2.97;;;;;;;23.88;49.47;101067.63;5062777;28;20033;-83
2023/06/07 10:19:36;;;;;;;18.90;5.35;;;;;;;24.22;47.65;101080.53;5070694;28;20032;-91
2023/06/07 10:22:05;;;;;;;11.55;4.40;;;;;;;24.15;48.79;101068.69;5057499;28;20033;-84
2023/06/07 10:24:57;;;;;;;10.90;3.47;;;;;;;24.17;49.40;101077.56;5059003;28;20028;-88
2023/06/07 10:27:26;;;;;;;11.38;3.53;;;;;;;24.18;50.02;101085.63;5057867;28;20063;-83
2023/06/07 10:30:09;;;;;;;14.68;3.67;;;;;;;24.33;47.99;101072.59;5033546;28;20025;-83
2023/06/07 10:32:37;;;;;;;22.88;4.85;;;;;;;24.34;48.83;101089.94;5033316;28;20028;-88
2023/06/07 10:35:03;;;;;;;15.10;3.15;;;;;;;24.28;48.61;101079.72;5035404;28;20029;-91
2023/06/07 10:37:32;;;;;;;9.23;3.63;;;;;;;24.24;48.72;101083.94;5036550;28;20080;-85
2023/06/07 10:39:58;;;;;;;14.82;3.55;;;;;;;24.25;49.24;101086.47;5052149;28;20033;-85
2023/06/07 10:42:25;;;;;;;25.48;4.55;;;;;;;24.25;49.62;101082.88;5046283;28;20025;-89
2023/06/07 10:44:50;;;;;;;27.98;5.55;;;;;;;24.05;49.54;101069.00;5042532;28;20037;-86
2023/06/07 10:47:22;;;;;;;18.95;3.42;;;;;;;24.18;48.25;101047.13;5032843;28;20055;-92
2023/06/07 10:49:49;;;;;;;12.38;3.10;;;;;;;24.34;48.88;101068.75;5037208;28;20033;-84
2023/06/07 10:52:15;;;;;;;10.07;3.22;;;;;;;24.17;48.00;101047.31;5055897;28;20049;-89
2023/06/07 10:54:45;;;;;;;15.45;3.17;;;;;;;24.07;47.69;101050.41;5073449;28;20029;-88
2023/06/07 10:57:11;;;;;;;14.60;5.00;;;;;;;24.44;49.10;101073.91;5062910;28;20028;-88
2023/06/07 10:59:40;;;;;;;11.13;3.03;;;;;;;24.42;49.54;101065.00;5076186;28;20010;-86
2023/06/07 11:02:26;;;;;;;8.23;2.67;;;;;;;24.46;48.58;101049.81;5075503;28;20052;-85
2023/06/07 11:04:53;;;;;;;13.10;3.97;;;;;;;24.57;47.50;101062.09;5070854;28;20432;-91
2023/06/07 11:07:32;;;;;;;14.75;3.53;;;;;;;24.57;49.79;101068.47;5056276;28;20412;-86
2023/06/07 11:10:02;;;;;;;14.75;4.28;;;;;;;24.64;49.18;101044.59;5067545;28;20025;-95
2023/06/07 11:12:44;;;;;;;6.70;3.33;;;;;;;24.78;48.69;101042.72;5076368;28;20040;-89
2023/06/07 11:15:20;;;;;;;;;;;;;;;24.77;46.81;101065.75;5069832;28;20033;-85
2023/06/07 11:17:53;;;;;;;8.15;3.30;;;;;;;24.52;49.37;101026.97;5056158;28;19909;-86
2023/06/07 11:23:24;;;;;;;34.25;4.97;;;;;;;24.53;51.98;101066.31;5058037;28;20061;-84
2023/06/07 11:26:08;;;;;;;8.35;3.50;;;;;;;24.71;51.37;101050.94;5054194;28;20035;-83